createdAt,value
2022-10-18T00:01:04.777Z,16.96
2022-10-18T00:03:33.604Z,16.99
2022-10-18T00:06:02.092Z,16.94
2022-10-18T00:08:30.695Z,16.82
2022-10-18T00:11:00.103Z,16.91
2022-10-18T00:13:28.379Z,17.19
2022-10-18T00:15:58.687Z,17.16
2022-10-18T00:18:26.854Z,16.93
2022-10-18T00:20:59.391Z,16.89
2022-10-18T00:23:28.827Z,16.39
2022-10-18T00:26:03.597Z,16.31
2022-10-18T00:28:31.878Z,16.19
2022-10-18T00:31:16.324Z,16.14
2022-10-18T00:33:45.491Z,16.19
2022-10-18T00:36:14.845Z,16.03
2022-10-18T00:38:43.517Z,15.97
2022-10-18T00:41:16.658Z,15.90
2022-10-18T00:43:56.220Z,15.85
2022-10-18T00:46:25.634Z,15.47
2022-10-18T00:48:55.638Z,15.53
2022-10-18T00:51:24.700Z,15.40
2022-10-18T00:53:53.392Z,15.25
2022-10-18T00:56:23.059Z,15.34
2022-10-18T00:58:52.825Z,15.33
2022-10-18T01:01:24.410Z,15.10
2022-10-18T01:03:57.095Z,15.21
2022-10-18T01:06:26.175Z,15.28
2022-10-18T01:09:07.187Z,15.47
2022-10-18T01:11:52.100Z,15.49
2022-10-18T01:14:36.132Z,15.47
2022-10-18T01:17:13.188Z,15.51
2022-10-18T01:20:13.801Z,15.31
2022-10-18T01:22:46.712Z,15.01
2022-10-18T01:25:30.523Z,14.98
2022-10-18T01:28:09.061Z,15.00
2022-10-18T01:31:05.001Z,15.13
2022-10-18T01:33:38.991Z,15.18
2022-10-18T01:36:15.518Z,15.01
2022-10-18T01:38:45.804Z,14.98
2022-10-18T01:41:16.068Z,14.94
2022-10-18T01:43:46.645Z,14.76
2022-10-18T01:46:19.750Z,14.76
2022-10-18T01:48:48.129Z,14.78
2022-10-18T01:51:16.202Z,14.78
2022-10-18T01:53:44.115Z,14.91
2022-10-18T01:56:28.944Z,14.94
2022-10-18T01:59:08.580Z,14.83
2022-10-18T02:01:48.738Z,14.92
2022-10-18T02:04:24.817Z,15.05
2022-10-18T02:06:59.273Z,15.11
2022-10-18T02:09:35.510Z,15.10
2022-10-18T02:12:04.980Z,15.12
2022-10-18T02:14:33.962Z,15.05
2022-10-18T02:17:09.207Z,15.03
2022-10-18T02:19:40.997Z,15.00
2022-10-18T02:22:12.394Z,15.05
2022-10-18T02:24:44.057Z,15.12
2022-10-18T02:27:12.341Z,15.01
2022-10-18T02:29:41.745Z,15.08
2022-10-18T02:32:17.929Z,14.85
2022-10-18T02:34:48.953Z,14.61
2022-10-18T02:37:18.773Z,14.62
2022-10-18T02:39:49.791Z,14.74
2022-10-18T02:42:18.882Z,14.82
2022-10-18T02:44:47.516Z,14.81
2022-10-18T02:47:17.933Z,14.82
2022-10-18T02:49:45.899Z,14.71
2022-10-18T02:52:13.888Z,14.71
2022-10-18T02:54:41.863Z,14.62
2022-10-18T02:57:09.889Z,14.57
2022-10-18T02:59:39.276Z,14.64
2022-10-18T03:02:07.387Z,14.53
2022-10-18T03:04:36.711Z,14.49
2022-10-18T03:07:04.789Z,14.48
2022-10-18T03:09:33.096Z,14.36
2022-10-18T03:12:01.038Z,14.28
2022-10-18T03:14:29.017Z,14.17
2022-10-18T03:16:56.993Z,14.13
2022-10-18T03:19:25.093Z,14.15
2022-10-18T03:21:54.459Z,14.16
2022-10-18T03:24:22.460Z,14.05
2022-10-18T03:26:50.512Z,14.08
2022-10-18T03:29:18.534Z,14.18
2022-10-18T03:31:47.635Z,14.13
2022-10-18T03:34:16.930Z,14.08
2022-10-18T03:36:45.177Z,13.97
2022-10-18T03:39:14.559Z,13.90
2022-10-18T03:41:42.600Z,13.85
2022-10-18T03:44:10.919Z,13.89
2022-10-18T03:46:39.008Z,14.03
2022-10-18T03:49:07.039Z,14.10
2022-10-18T03:51:35.017Z,14.01
2022-10-18T03:54:03.089Z,13.96
2022-10-18T03:56:32.999Z,13.86
2022-10-18T03:59:01.019Z,13.92
2022-10-18T04:01:29.127Z,14.01
2022-10-18T04:03:57.140Z,14.14
2022-10-18T04:06:25.182Z,14.13
2022-10-18T04:08:53.189Z,14.08
2022-10-18T04:11:21.133Z,14.06
2022-10-18T04:13:51.019Z,14.07
2022-10-18T04:16:19.003Z,14.04
2022-10-18T04:18:46.972Z,14.05
2022-10-18T04:21:15.328Z,14.16
2022-10-18T04:23:43.380Z,14.03
2022-10-18T04:26:11.653Z,13.98
2022-10-18T04:28:40.303Z,14.08
2022-10-18T04:31:10.642Z,13.86
2022-10-18T04:33:39.232Z,13.91
2022-10-18T04:36:07.688Z,13.90
2022-10-18T04:38:35.809Z,13.88
2022-10-18T04:41:04.200Z,13.50
2022-10-18T04:43:32.327Z,13.44
2022-10-18T04:46:00.464Z,13.58
2022-10-18T04:48:29.824Z,13.65
2022-10-18T04:50:57.847Z,13.34
2022-10-18T04:53:25.806Z,13.07
2022-10-18T04:55:53.900Z,13.04
2022-10-18T04:58:21.887Z,13.17
2022-10-18T05:00:51.062Z,13.30
2022-10-18T05:03:19.072Z,13.16
2022-10-18T05:06:03.936Z,13.22
2022-10-18T05:08:32.948Z,13.15
2022-10-18T05:11:01.641Z,13.34
2022-10-18T05:13:29.951Z,13.30
2022-10-18T05:15:59.485Z,13.36
2022-10-18T05:18:27.682Z,13.44
2022-10-18T05:20:57.688Z,13.61
2022-10-18T05:23:26.353Z,13.48
2022-10-18T05:25:54.994Z,13.51
2022-10-18T05:28:41.022Z,13.50
2022-10-18T05:31:12.431Z,13.38
2022-10-18T05:33:40.893Z,13.38
2022-10-18T05:36:11.443Z,13.45
2022-10-18T05:38:42.201Z,13.61
2022-10-18T05:41:17.355Z,13.48
2022-10-18T05:43:45.454Z,13.67
2022-10-18T05:46:15.523Z,13.61
2022-10-18T05:48:45.194Z,13.92
2022-10-18T05:51:15.006Z,13.91
2022-10-18T05:53:43.315Z,14.05
2022-10-18T05:56:12.612Z,14.19
2022-10-18T05:58:41.119Z,14.32
2022-10-18T06:01:11.348Z,14.34
2022-10-18T06:03:39.616Z,14.54
2022-10-18T06:06:10.363Z,15.04
2022-10-18T06:08:41.046Z,15.70
2022-10-18T06:11:10.359Z,16.15
2022-10-18T06:13:42.252Z,15.85
2022-10-18T06:16:11.532Z,15.08
2022-10-18T06:18:40.088Z,15.49
2022-10-18T06:21:08.897Z,15.93
2022-10-18T06:23:37.100Z,16.29
2022-10-18T06:26:08.714Z,16.62
2022-10-18T06:28:39.966Z,16.92
2022-10-18T06:31:08.948Z,17.26
2022-10-18T06:33:37.978Z,17.55
2022-10-18T06:36:08.504Z,17.90
2022-10-18T06:38:36.996Z,18.01
2022-10-18T06:41:08.880Z,18.48
2022-10-18T06:43:37.585Z,18.88
2022-10-18T06:46:07.824Z,19.04
2022-10-18T06:48:36.437Z,19.19
2022-10-18T06:51:06.468Z,19.27
2022-10-18T06:53:43.785Z,19.60
2022-10-18T06:56:18.226Z,20.07
2022-10-18T06:58:46.487Z,20.39
2022-10-18T07:01:16.768Z,22.21
2022-10-18T07:03:45.634Z,25.06
2022-10-18T07:06:15.091Z,26.45
2022-10-18T07:08:43.290Z,25.34
2022-10-18T07:11:16.625Z,25.06
2022-10-18T07:13:46.793Z,22.84
2022-10-18T07:16:18.622Z,25.64
2022-10-18T07:18:49.643Z,25.87
2022-10-18T07:21:19.551Z,26.54
2022-10-18T07:23:48.393Z,24.02
2022-10-18T07:26:18.757Z,21.64
2022-10-18T07:28:52.236Z,20.99
2022-10-18T07:31:20.727Z,22.13
2022-10-18T07:33:49.166Z,21.74
2022-10-18T07:36:17.399Z,22.16
2022-10-18T07:38:45.768Z,24.76
2022-10-18T07:41:15.249Z,25.48
2022-10-18T07:43:45.967Z,22.67
2022-10-18T07:46:16.698Z,19.86
2022-10-18T07:48:45.111Z,19.19
2022-10-18T07:51:13.638Z,19.01
2022-10-18T07:53:42.204Z,18.62
2022-10-18T07:56:16.581Z,19.33
2022-10-18T07:58:45.465Z,19.18
2022-10-18T08:01:16.688Z,19.18
2022-10-18T08:03:45.401Z,19.62
2022-10-18T08:06:15.191Z,19.57
2022-10-18T08:08:44.000Z,19.58
2022-10-18T08:11:14.904Z,19.52
2022-10-18T08:13:43.589Z,19.92
2022-10-18T08:16:13.985Z,19.63
2022-10-18T08:18:44.037Z,20.66
2022-10-18T08:21:14.110Z,20.69
2022-10-18T08:23:42.614Z,20.13
2022-10-18T08:26:13.092Z,20.78
2022-10-18T08:28:46.125Z,19.79
2022-10-18T08:31:23.063Z,20.19
2022-10-18T08:33:52.725Z,19.89
2022-10-18T08:36:20.960Z,19.67
2022-10-18T08:38:49.495Z,20.10
2022-10-18T08:41:34.341Z,19.58
2022-10-18T08:44:09.146Z,19.73
2022-10-18T08:46:40.081Z,18.79
2022-10-18T08:49:17.053Z,19.85
2022-10-18T08:51:47.927Z,19.99
2022-10-18T08:54:23.470Z,19.40
2022-10-18T08:57:00.095Z,20.42
2022-10-18T08:59:34.023Z,20.17
2022-10-18T09:02:14.088Z,20.01
2022-10-18T09:04:50.752Z,18.77
2022-10-18T09:07:37.011Z,18.70
2022-10-18T09:10:11.675Z,18.44
2022-10-18T09:13:01.501Z,18.33
2022-10-18T09:15:40.866Z,18.52
2022-10-18T09:18:24.135Z,18.37
2022-10-18T09:20:58.256Z,18.01
2022-10-18T09:23:40.480Z,17.81
2022-10-18T09:26:15.097Z,17.87
2022-10-18T09:28:52.710Z,17.68
2022-10-18T09:31:28.936Z,17.63
2022-10-18T09:36:52.992Z,18.04
2022-10-18T09:39:25.066Z,18.38
2022-10-18T09:41:58.693Z,18.33
2022-10-18T09:44:31.421Z,18.35
2022-10-18T09:47:04.006Z,17.91
2022-10-18T09:49:38.595Z,17.81
2022-10-18T09:52:15.201Z,17.88
2022-10-18T09:54:48.967Z,18.10
2022-10-18T09:57:23.482Z,17.99
2022-10-18T09:59:52.405Z,17.76
2022-10-18T10:02:22.957Z,17.96
2022-10-18T10:04:51.879Z,17.88
2022-10-18T10:07:25.172Z,17.72
2022-10-18T10:09:58.566Z,18.04
2022-10-18T10:12:29.863Z,18.13
2022-10-18T10:15:18.977Z,18.04
2022-10-18T10:17:57.494Z,17.73
2022-10-18T10:20:34.131Z,18.07
2022-10-18T10:23:10.115Z,18.75
2022-10-18T10:25:39.427Z,18.47
2022-10-18T10:28:14.484Z,18.33
2022-10-18T10:30:49.209Z,18.28
2022-10-18T10:33:33.602Z,18.92
2022-10-18T10:36:04.383Z,19.13
2022-10-18T10:38:34.417Z,19.85
2022-10-18T10:41:02.840Z,20.10
2022-10-18T10:43:39.169Z,19.73
2022-10-18T10:46:10.992Z,18.60
2022-10-18T10:48:48.600Z,19.21
2022-10-18T10:51:28.367Z,19.78
2022-10-18T10:54:02.789Z,19.92
2022-10-18T10:56:33.300Z,19.96
2022-10-18T10:59:11.657Z,19.69
2022-10-18T11:01:40.404Z,21.09
2022-10-18T11:04:25.760Z,19.71
2022-10-18T11:07:05.263Z,20.07
2022-10-18T11:09:43.905Z,20.29
2022-10-18T11:12:26.585Z,20.60
2022-10-18T11:15:05.607Z,21.03
2022-10-18T11:17:41.241Z,21.25
2022-10-18T11:20:17.651Z,22.05
2022-10-18T11:22:59.934Z,20.90
2022-10-18T11:25:50.530Z,20.50
2022-10-18T11:28:29.930Z,21.97
2022-10-18T11:31:10.007Z,21.06
2022-10-18T11:34:08.640Z,20.90
2022-10-18T11:36:54.843Z,21.20
2022-10-18T11:39:42.583Z,19.82
2022-10-18T11:42:20.817Z,20.65
2022-10-18T11:45:00.171Z,20.29
2022-10-18T11:47:35.749Z,20.03
2022-10-18T11:50:21.332Z,19.42
2022-10-18T11:52:59.348Z,20.07
2022-10-18T11:55:38.180Z,19.32
2022-10-18T11:58:21.921Z,19.33
2022-10-18T12:00:54.966Z,19.14
2022-10-18T12:03:34.746Z,19.05
2022-10-18T12:06:07.074Z,18.28
2022-10-18T12:08:41.448Z,18.65
2022-10-18T12:11:16.345Z,18.28
2022-10-18T12:13:50.169Z,18.25
2022-10-18T12:16:33.532Z,17.91
2022-10-18T12:19:23.304Z,17.85
2022-10-18T12:21:56.093Z,17.98
2022-10-18T12:24:30.079Z,17.31
2022-10-18T12:27:01.083Z,17.39
2022-10-18T12:29:37.835Z,17.15
2022-10-18T12:32:28.244Z,16.97
2022-10-18T12:35:00.942Z,17.20
2022-10-18T12:37:56.400Z,17.17
2022-10-18T12:40:27.093Z,17.01
2022-10-18T12:42:55.649Z,16.82
2022-10-18T12:45:32.460Z,16.48
2022-10-18T12:48:02.083Z,16.73
2022-10-18T12:50:37.216Z,17.11
2022-10-18T12:53:21.342Z,17.71
2022-10-18T12:55:51.568Z,17.79
2022-10-18T12:58:30.379Z,17.45
2022-10-18T13:01:03.201Z,17.40
2022-10-18T13:03:59.118Z,17.32
2022-10-18T13:06:47.272Z,17.62
2022-10-18T13:09:22.053Z,17.96
2022-10-18T13:11:51.280Z,18.55
2022-10-18T13:15:07.324Z,18.43
2022-10-18T13:17:48.894Z,18.62
2022-10-18T13:20:27.221Z,18.31
2022-10-18T13:25:58.673Z,18.34
2022-10-18T13:28:35.102Z,18.29
2022-10-18T13:31:17.067Z,18.20
2022-10-18T13:33:47.165Z,18.37
2022-10-18T13:36:24.977Z,18.31
2022-10-18T13:39:06.682Z,18.67
2022-10-18T13:42:13.497Z,18.32
2022-10-18T13:44:43.624Z,18.19
2022-10-18T13:47:14.483Z,18.01
2022-10-18T13:50:16.698Z,18.17
2022-10-18T13:53:02.413Z,18.39
2022-10-18T13:55:52.074Z,18.40
2022-10-18T13:58:33.564Z,18.59
2022-10-18T14:01:14.748Z,18.63
2022-10-18T14:04:15.067Z,18.67
2022-10-18T14:06:45.204Z,18.72
2022-10-18T14:09:26.165Z,18.78
2022-10-18T14:12:18.017Z,18.17
2022-10-18T14:14:52.043Z,18.43
2022-10-18T14:17:31.568Z,18.53
2022-10-18T14:20:06.260Z,18.50
2022-10-18T14:22:41.439Z,18.14
2022-10-18T14:25:23.263Z,17.98
2022-10-18T14:28:06.914Z,18.31
2022-10-18T14:30:37.590Z,18.12
2022-10-18T14:33:07.152Z,18.06
2022-10-18T14:35:35.849Z,17.64
2022-10-18T14:38:04.465Z,18.27
2022-10-18T14:40:39.941Z,18.42
2022-10-18T14:43:12.969Z,18.34
2022-10-18T14:45:41.793Z,18.43
2022-10-18T14:48:16.967Z,18.60
2022-10-18T14:50:48.431Z,18.65
2022-10-18T14:53:18.781Z,18.70
2022-10-18T14:55:57.425Z,18.19
2022-10-18T14:58:25.565Z,18.60
2022-10-18T15:00:54.240Z,18.48
2022-10-18T15:03:22.900Z,18.67
2022-10-18T15:05:56.435Z,18.57
2022-10-18T15:08:27.577Z,18.35
2022-10-18T15:10:58.312Z,18.43
2022-10-18T15:13:26.821Z,18.17
2022-10-18T15:15:57.070Z,18.20
2022-10-18T15:18:27.753Z,17.90
2022-10-18T15:21:09.628Z,18.25
2022-10-18T15:23:37.936Z,18.45
2022-10-18T15:26:11.537Z,18.37
2022-10-18T15:28:49.748Z,18.45
2022-10-18T15:31:25.477Z,18.41
2022-10-18T15:33:54.960Z,18.40
2022-10-18T15:36:29.749Z,18.19
2022-10-18T15:39:09.941Z,17.83
2022-10-18T15:41:41.699Z,17.59
2022-10-18T15:44:21.496Z,17.33
2022-10-18T15:46:52.913Z,17.23
2022-10-18T15:50:00.854Z,17.46
2022-10-18T15:52:38.117Z,17.38
2022-10-18T15:55:48.354Z,17.09
2022-10-18T15:58:24.413Z,17.22
2022-10-18T16:00:54.407Z,17.09
2022-10-18T16:03:24.246Z,16.86
2022-10-18T16:05:57.049Z,17.26
2022-10-18T16:08:29.005Z,17.03
2022-10-18T16:10:57.757Z,17.08
2022-10-18T16:13:28.415Z,17.13
2022-10-18T16:15:56.784Z,16.78
2022-10-18T16:18:26.097Z,16.70
2022-10-18T16:20:54.366Z,16.80
2022-10-18T16:23:25.476Z,16.78
2022-10-18T16:25:53.973Z,16.62
2022-10-18T16:28:23.889Z,16.63
2022-10-18T16:31:00.993Z,16.68
2022-10-18T16:33:29.452Z,16.56
2022-10-18T16:35:58.384Z,16.54
2022-10-18T16:38:32.629Z,16.55
2022-10-18T16:41:02.866Z,16.95
2022-10-18T16:43:31.165Z,16.94
2022-10-18T16:46:00.511Z,17.12
2022-10-18T16:48:29.223Z,17.23
2022-10-18T16:50:59.150Z,16.97
2022-10-18T16:53:28.021Z,16.68
2022-10-18T16:55:58.472Z,16.89
2022-10-18T16:58:28.203Z,16.87
2022-10-18T17:00:56.814Z,16.97
2022-10-18T17:03:26.752Z,16.91
2022-10-18T17:05:56.292Z,16.99
2022-10-18T17:08:26.623Z,16.71
2022-10-18T17:10:56.992Z,16.76
2022-10-18T17:13:26.719Z,16.79
2022-10-18T17:15:55.018Z,16.74
2022-10-18T17:18:26.480Z,16.50
2022-10-18T17:20:59.322Z,16.51
2022-10-18T17:23:27.522Z,16.50
2022-10-18T17:26:05.486Z,16.46
2022-10-18T17:28:43.221Z,16.18
2022-10-18T17:31:11.810Z,16.16
2022-10-18T17:33:40.125Z,16.23
2022-10-18T17:36:09.605Z,16.31
2022-10-18T17:38:37.598Z,16.07
2022-10-18T17:41:08.270Z,16.08
2022-10-18T17:43:37.817Z,15.69
2022-10-18T17:46:06.677Z,16.00
2022-10-18T17:48:34.938Z,15.99
2022-10-18T17:51:09.919Z,15.91
2022-10-18T17:53:37.948Z,15.94
2022-10-18T17:56:07.712Z,16.00
2022-10-18T17:58:36.215Z,15.68
2022-10-18T18:01:11.655Z,15.69
2022-10-18T18:03:39.737Z,15.51
2022-10-18T18:06:17.424Z,15.28
2022-10-18T18:08:46.012Z,15.34
2022-10-18T18:11:14.151Z,15.26
2022-10-18T18:13:42.609Z,15.20
2022-10-18T18:16:11.983Z,15.28
2022-10-18T18:18:40.013Z,15.28
2022-10-18T18:21:08.049Z,14.99
2022-10-18T18:23:37.458Z,15.16
2022-10-18T18:26:05.590Z,15.30
2022-10-18T18:28:34.619Z,15.17
2022-10-18T18:31:07.248Z,15.17
2022-10-18T18:33:36.018Z,15.10
2022-10-18T18:36:06.722Z,15.15
2022-10-18T18:38:36.578Z,15.40
2022-10-18T18:41:07.897Z,15.67
2022-10-18T18:43:36.311Z,15.58
2022-10-18T18:46:04.638Z,15.39
2022-10-18T18:48:34.023Z,15.62
2022-10-18T18:51:02.172Z,15.43
2022-10-18T18:53:30.623Z,15.35
2022-10-18T18:56:07.998Z,15.47
2022-10-18T18:58:37.546Z,15.46
2022-10-18T19:01:09.683Z,15.61
2022-10-18T19:03:40.195Z,15.74
2022-10-18T19:06:10.766Z,15.57
2022-10-18T19:08:40.278Z,15.45
2022-10-18T19:11:09.836Z,15.35
2022-10-18T19:13:37.909Z,15.49
2022-10-18T19:16:22.864Z,15.60
2022-10-18T19:18:52.725Z,15.63
2022-10-18T19:21:21.262Z,15.74
2022-10-18T19:23:50.266Z,15.67
2022-10-18T19:26:33.013Z,15.71
2022-10-18T19:29:02.624Z,15.79
2022-10-18T19:31:31.370Z,15.94
2022-10-18T19:34:00.185Z,15.98
2022-10-18T19:36:30.246Z,16.01
2022-10-18T19:38:58.676Z,15.74
2022-10-18T19:41:29.316Z,15.97
2022-10-18T19:43:58.076Z,16.16
2022-10-18T19:46:26.587Z,15.97
2022-10-18T19:48:55.005Z,16.28
2022-10-18T19:51:27.787Z,16.16
2022-10-18T19:53:57.006Z,16.16
2022-10-18T19:56:26.866Z,15.92
2022-10-18T19:58:57.073Z,16.19
2022-10-18T20:01:25.676Z,16.14
2022-10-18T20:03:53.925Z,16.53
2022-10-18T20:06:22.646Z,16.41
2022-10-18T20:08:51.090Z,16.55
2022-10-18T20:11:22.844Z,16.29
2022-10-18T20:13:51.044Z,16.20
2022-10-18T20:16:28.135Z,16.21
2022-10-18T20:18:58.248Z,16.39
2022-10-18T20:21:27.327Z,16.38
2022-10-18T20:23:56.005Z,16.08
2022-10-18T20:26:25.590Z,16.31
2022-10-18T20:28:57.788Z,16.30
2022-10-18T20:31:29.542Z,16.49
2022-10-18T20:33:59.209Z,16.34
2022-10-18T20:36:28.827Z,16.34
2022-10-18T20:38:57.162Z,16.36
2022-10-18T20:41:27.112Z,16.43
2022-10-18T20:43:57.303Z,16.59
2022-10-18T20:46:27.491Z,16.67
2022-10-18T20:48:55.823Z,16.32
2022-10-18T20:51:24.316Z,16.48
2022-10-18T20:53:53.519Z,16.63
2022-10-18T20:56:25.282Z,16.53
2022-10-18T20:58:56.011Z,16.83
2022-10-18T21:01:26.123Z,16.96
2022-10-18T21:03:57.331Z,16.90
2022-10-18T21:06:27.315Z,16.84
2022-10-18T21:08:56.813Z,16.70
2022-10-18T21:11:26.238Z,16.69
2022-10-18T21:13:55.958Z,16.78
2022-10-18T21:16:24.069Z,16.53
2022-10-18T21:18:52.256Z,16.37
2022-10-18T21:21:23.835Z,16.46
2022-10-18T21:23:52.780Z,16.57
2022-10-18T21:26:22.274Z,16.30
2022-10-18T21:28:51.775Z,16.30
2022-10-18T21:31:22.406Z,15.70
2022-10-18T21:33:54.391Z,15.04
2022-10-18T21:36:24.316Z,15.26
2022-10-18T21:38:52.994Z,15.14
2022-10-18T21:41:22.453Z,15.21
2022-10-18T21:43:51.869Z,15.30
2022-10-18T21:46:21.856Z,15.14
2022-10-18T21:48:51.659Z,15.04
2022-10-18T21:51:22.577Z,14.75
2022-10-18T21:53:53.743Z,14.84
2022-10-18T21:56:23.628Z,14.80
2022-10-18T21:58:51.643Z,14.84
2022-10-18T22:01:21.878Z,14.78
2022-10-18T22:03:52.431Z,14.58
2022-10-18T22:06:21.484Z,14.41
2022-10-18T22:08:52.392Z,14.51
2022-10-18T22:11:22.971Z,14.68
2022-10-18T22:13:51.254Z,14.79
2022-10-18T22:16:19.564Z,14.76
2022-10-18T22:18:48.790Z,14.81
2022-10-18T22:21:18.618Z,14.94
2022-10-18T22:23:48.695Z,14.84
2022-10-18T22:26:20.149Z,14.92
2022-10-18T22:28:49.399Z,14.89
2022-10-18T22:31:18.919Z,14.73
2022-10-18T22:33:47.387Z,14.54
2022-10-18T22:36:15.510Z,14.67
2022-10-18T22:38:43.502Z,14.67
2022-10-18T22:41:12.809Z,14.79
2022-10-18T22:43:42.249Z,14.77
2022-10-18T22:46:12.644Z,14.84
2022-10-18T22:48:40.652Z,14.83
2022-10-18T22:51:09.196Z,14.90
2022-10-18T22:53:37.651Z,14.98
2022-10-18T22:56:06.823Z,14.96
2022-10-18T22:58:34.889Z,14.82
2022-10-18T23:01:06.633Z,14.74
2022-10-18T23:03:35.027Z,14.76
2022-10-18T23:06:03.141Z,14.63
2022-10-18T23:08:32.224Z,14.55
2022-10-18T23:11:00.868Z,14.56
2022-10-18T23:13:29.294Z,14.57
2022-10-18T23:16:04.761Z,14.79
2022-10-18T23:18:33.517Z,14.77
2022-10-18T23:21:03.066Z,14.91
2022-10-18T23:23:34.830Z,14.77
2022-10-18T23:26:05.999Z,14.78
2022-10-18T23:28:36.054Z,14.63
2022-10-18T23:31:10.831Z,14.25
2022-10-18T23:33:39.830Z,14.02
2022-10-18T23:36:09.589Z,13.87
2022-10-18T23:38:39.285Z,14.08
2022-10-18T23:41:09.021Z,14.22
2022-10-18T23:43:37.602Z,14.32
2022-10-18T23:46:06.255Z,14.17
2022-10-18T23:48:35.711Z,14.06
2022-10-18T23:51:04.605Z,14.05
2022-10-18T23:53:33.155Z,13.90
2022-10-18T23:56:03.655Z,13.87
2022-10-18T23:58:33.773Z,13.86
